Time;durP1;ratioP1;P1;durP2;ratioP2;P2;SDS_P1;SDS_P2;PMS_P1;PMS_P2;Temp;Humidity;BMP_temperature;BMP_pressure;BME280_temperature;BME280_humidity;BME280_pressure;Samples;Min_cycle;Max_cycle;Signal;HPM_P1;HPM_P2
2022/01/17 00:01:03;;;;;;;14.77;8.68;;;3.40;92.00;;;;;;4995530;28;20052;-83
2022/01/17 00:03:29;;;;;;;13.38;8.05;;;3.40;92.10;;;;;;5027833;28;20029;-83
2022/01/17 00:05:54;;;;;;;14.38;8.68;;;3.50;92.10;;;;;;5044166;28;20683;-82
2022/01/17 00:08:20;;;;;;;14.30;7.68;;;3.50;92.10;;;;;;5054076;28;20025;-82
2022/01/17 00:10:46;;;;;;;15.80;8.68;;;3.50;92.10;;;;;;5026023;28;20025;-84
2022/01/17 00:22:40;;;;;;;16.13;8.38;;;3.50;92.00;;;;;;5054025;28;19990;-82
2022/01/17 00:25:07;;;;;;;13.75;8.55;;;3.50;92.00;;;;;;5031065;28;20470;-81
2022/01/17 00:27:33;;;;;;;14.40;8.98;;;3.50;92.00;;;;;;5042077;28;20079;-82
2022/01/17 00:30:09;;;;;;;15.50;8.68;;;3.50;92.00;;;;;;5031654;28;20047;-81
2022/01/17 00:32:34;;;;;;;13.98;9.20;;;3.50;92.10;;;;;;5017593;28;20121;-81
2022/01/17 00:35:00;;;;;;;16.73;9.05;;;3.50;92.10;;;;;;5041823;28;20061;-81
2022/01/17 00:37:25;;;;;;;14.65;8.55;;;3.50;92.10;;;;;;5018304;28;20028;-82
2022/01/17 00:39:51;;;;;;;14.60;8.18;;;3.40;92.10;;;;;;5037310;28;20029;-81
2022/01/17 00:42:16;;;;;;;14.20;8.88;;;3.50;92.10;;;;;;5031657;28;20052;-81
2022/01/17 00:44:42;;;;;;;13.65;8.32;;;3.50;92.10;;;;;;5031176;28;20113;-81
2022/01/17 00:47:07;;;;;;;13.27;8.35;;;3.50;92.20;;;;;;5044885;28;20044;-81
2022/01/17 00:49:33;;;;;;;12.95;8.02;;;3.50;92.20;;;;;;4984922;28;20037;-81
2022/01/17 00:51:58;;;;;;;14.63;7.82;;;3.50;92.20;;;;;;5036779;28;20051;-81
2022/01/17 00:54:24;;;;;;;14.27;8.10;;;3.50;92.20;;;;;;5025330;28;20034;-83
2022/01/17 00:56:49;;;;;;;11.30;7.28;;;3.50;92.20;;;;;;5037578;28;20033;-84
2022/01/17 00:59:15;;;;;;;11.73;6.85;;;3.50;92.20;;;;;;5041132;28;20045;-84
2022/01/17 01:01:41;;;;;;;11.95;7.57;;;3.50;92.20;;;;;;5056544;28;20044;-84
2022/01/17 01:04:06;;;;;;;11.32;6.75;;;3.50;92.10;;;;;;5024110;28;20044;-81
2022/01/17 01:06:32;;;;;;;12.18;6.97;;;3.50;92.10;;;;;;5015749;28;20063;-81
2022/01/17 01:08:58;;;;;;;12.77;7.47;;;3.50;92.10;;;;;;4995346;28;20372;-83
2022/01/17 01:11:23;;;;;;;12.23;6.82;;;3.50;92.10;;;;;;5026090;28;20119;-83
2022/01/17 01:13:49;;;;;;;10.75;6.95;;;3.50;92.10;;;;;;5020397;28;20029;-83
2022/01/17 01:19:08;;;;;;;11.35;6.90;;;3.50;92.10;;;;;;5034302;28;20040;-83
2022/01/17 01:29:31;;;;;;;11.50;7.28;;;3.50;92.10;;;;;;5034751;28;20490;-83
2022/01/17 01:32:06;;;;;;;11.77;7.43;;;3.50;92.10;;;;;;5010035;28;20044;-81
2022/01/17 01:34:36;;;;;;;14.07;8.00;;;3.50;92.10;;;;;;5036980;28;20041;-81
2022/01/17 01:37:03;;;;;;;12.32;7.35;;;3.50;92.20;;;;;;5022328;28;20033;-81
2022/01/17 01:39:28;;;;;;;12.00;7.68;;;3.60;92.10;;;;;;5010912;28;20030;-81
2022/01/17 01:41:54;;;;;;;14.45;8.25;;;3.50;92.20;;;;;;5017114;28;20097;-81
2022/01/17 01:44:21;;;;;;;14.90;8.65;;;3.60;92.20;;;;;;4988654;28;20043;-81
2022/01/17 01:46:47;;;;;;;12.35;7.68;;;3.60;92.20;;;;;;5013107;28;20510;-82
2022/01/17 01:49:13;;;;;;;11.68;7.70;;;3.60;92.20;;;;;;5019437;28;20028;-82
2022/01/17 01:51:38;;;;;;;12.52;7.50;;;3.60;92.20;;;;;;5023110;28;20395;-81
2022/01/17 01:54:04;;;;;;;12.98;7.70;;;3.60;92.20;;;;;;5019521;28;20108;-82
2022/01/17 01:56:30;;;;;;;14.50;7.95;;;3.60;92.10;;;;;;5021779;28;20057;-81
2022/01/17 01:58:56;;;;;;;13.13;7.40;;;3.60;92.10;;;;;;5003210;28;20045;-81
2022/01/17 02:01:21;;;;;;;12.40;7.60;;;3.60;92.50;;;;;;5035114;28;20029;-82
2022/01/17 02:03:47;;;;;;;11.55;6.60;;;3.60;92.10;;;;;;5010915;28;20029;-83
2022/01/17 02:06:12;;;;;;;13.82;7.93;;;3.60;92.20;;;;;;4988250;28;20037;-82
2022/01/17 02:08:38;;;;;;;11.18;7.25;;;3.60;92.20;;;;;;5001147;28;20033;-84
2022/01/17 02:11:03;;;;;;;11.43;7.43;;;3.60;92.20;;;;;;5008788;28;20033;-81
2022/01/17 02:13:29;;;;;;;11.20;7.15;;;3.60;92.20;;;;;;5038445;28;20029;-80
2022/01/17 02:16:04;;;;;;;13.20;7.22;;;3.60;92.20;;;;;;5010962;28;20037;-84
2022/01/17 02:18:31;;;;;;;10.45;7.00;;;3.60;92.20;;;;;;5034560;28;20029;-82
2022/01/17 02:23:41;;;;;;;11.60;7.32;;;3.60;92.20;;;;;;5041197;28;20033;-82
2022/01/17 02:26:06;;;;;;;13.93;8.25;;;3.60;92.10;;;;;;5023541;28;20052;-83
2022/01/17 02:28:33;;;;;;;14.43;7.82;;;3.60;92.20;;;;;;5022744;28;20049;-83
2022/01/17 02:31:00;;;;;;;12.43;7.90;;;3.60;92.20;;;;;;5016278;28;20032;-82
2022/01/17 02:33:26;;;;;;;12.05;7.57;;;3.60;92.20;;;;;;5031345;28;20533;-82
2022/01/17 02:35:51;;;;;;;13.48;7.82;;;3.60;92.20;;;;;;5022502;28;20132;-81
2022/01/17 02:38:17;;;;;;;14.02;8.02;;;3.60;92.20;;;;;;4986625;28;20026;-81
2022/01/17 02:40:42;;;;;;;14.13;8.50;;;3.60;92.20;;;;;;4996174;28;20029;-82
2022/01/17 02:43:08;;;;;;;13.68;7.97;;;3.60;92.20;;;;;;5000431;28;20112;-81
2022/01/17 02:46:24;;;;;;;12.95;7.82;;;3.60;92.20;;;;;;5016505;28;20486;-81
2022/01/17 02:48:25;;;;;;;12.43;7.18;;;3.60;92.20;;;;;;5020541;28;20033;-81
2022/01/17 02:50:50;;;;;;;15.32;8.05;;;3.60;92.20;;;;;;5010556;28;20025;-81
2022/01/17 02:53:16;;;;;;;13.15;7.78;;;3.60;92.20;;;;;;5015343;28;20025;-82
2022/01/17 02:55:49;;;;;;;13.45;7.72;;;3.60;92.20;;;;;;5018052;28;20396;-82
2022/01/17 02:58:15;;;;;;;13.25;7.97;;;3.60;92.20;;;;;;5034438;28;20038;-81
2022/01/17 03:00:41;;;;;;;14.38;7.90;;;3.60;92.20;;;;;;4999147;28;20092;-81
2022/01/17 03:03:09;;;;;;;11.73;6.97;;;3.60;92.20;;;;;;4992367;28;20042;-81
2022/01/17 03:05:34;;;;;;;15.18;8.25;;;3.60;92.20;;;;;;5009871;28;20086;-81
2022/01/17 03:08:00;;;;;;;14.55;7.55;;;3.60;92.20;;;;;;4996475;28;20108;-81
2022/01/17 03:10:40;;;;;;;13.63;7.72;;;3.60;92.30;;;;;;5018444;28;20037;-81
2022/01/17 03:13:07;;;;;;;14.23;7.78;;;3.60;92.20;;;;;;5006731;28;20037;-81
2022/01/17 03:15:33;;;;;;;16.08;8.23;;;3.70;92.30;;;;;;5000776;28;20029;-81
2022/01/17 03:17:59;;;;;;;15.30;8.75;;;3.60;92.30;;;;;;5035033;28;20034;-82
2022/01/17 03:20:25;;;;;;;13.70;7.53;;;3.70;92.30;;;;;;5016486;28;20033;-82
2022/01/17 03:22:50;;;;;;;14.38;8.05;;;3.60;92.20;;;;;;4994991;28;20038;-82
2022/01/17 03:25:16;;;;;;;12.85;7.82;;;3.60;92.20;;;;;;5000747;28;20029;-82
2022/01/17 03:27:41;;;;;;;14.45;8.20;;;3.60;92.20;;;;;;4999416;28;20117;-82
2022/01/17 03:30:07;;;;;;;17.98;9.10;;;3.60;92.20;;;;;;5025765;28;20060;-81
2022/01/17 03:32:33;;;;;;;12.57;8.00;;;3.60;92.20;;;;;;5000917;28;20032;-82
2022/01/17 03:34:58;;;;;;;15.20;8.40;;;3.60;92.30;;;;;;5006415;28;20480;-82
2022/01/17 03:37:24;;;;;;;14.90;8.70;;;3.60;92.30;;;;;;5013321;28;20037;-82
2022/01/17 03:39:50;;;;;;;14.25;7.72;;;3.50;92.20;;;;;;5030609;28;20028;-81
2022/01/17 03:42:18;;;;;;;12.95;7.88;;;3.50;92.20;;;;;;5017530;28;20033;-82
2022/01/17 03:44:43;;;;;;;15.73;8.20;;;3.50;92.30;;;;;;5043650;28;20029;-82
2022/01/17 03:47:09;;;;;;;13.27;7.65;;;3.50;92.30;;;;;;5002573;28;20553;-82
2022/01/17 03:49:34;;;;;;;14.07;7.47;;;3.60;92.30;;;;;;5039301;28;20044;-82
2022/01/17 03:52:00;;;;;;;13.50;7.63;;;3.60;92.30;;;;;;5040095;28;20067;-81
2022/01/17 03:54:25;;;;;;;14.02;7.82;;;3.60;92.30;;;;;;5003985;28;20045;-81
2022/01/17 03:56:51;;;;;;;12.63;7.18;;;3.60;92.30;;;;;;5012204;28;20028;-81
2022/01/17 03:59:16;;;;;;;14.70;8.32;;;3.60;92.30;;;;;;5036067;28;20705;-82
2022/01/17 04:01:42;;;;;;;11.82;6.90;;;3.60;92.30;;;;;;5029585;28;20048;-82
2022/01/17 04:04:08;;;;;;;12.50;7.45;;;3.60;92.30;;;;;;5020683;28;20036;-82
2022/01/17 04:06:34;;;;;;;15.93;7.93;;;3.60;92.30;;;;;;5056281;28;20060;-82
2022/01/17 04:09:00;;;;;;;13.50;7.38;;;3.60;92.30;;;;;;5018958;28;20109;-82
2022/01/17 04:11:25;;;;;;;14.35;7.70;;;3.60;92.30;;;;;;5035368;28;20044;-82
2022/01/17 04:13:51;;;;;;;14.20;8.82;;;3.60;92.30;;;;;;5035431;28;20032;-82
2022/01/17 04:16:16;;;;;;;13.75;7.55;;;3.70;92.30;;;;;;5004348;28;20037;-82
2022/01/17 04:18:43;;;;;;;11.85;7.68;;;3.70;92.30;;;;;;5036383;28;20084;-82
2022/01/17 04:21:08;;;;;;;11.43;7.07;;;3.70;92.30;;;;;;5021997;28;20773;-81
2022/01/17 04:23:34;;;;;;;13.07;7.57;;;3.70;92.30;;;;;;5027053;28;20021;-82
2022/01/17 04:25:59;;;;;;;12.20;7.32;;;3.70;92.30;;;;;;5015581;28;20033;-81
2022/01/17 04:28:25;;;;;;;12.77;7.15;;;3.70;92.30;;;;;;5040814;28;20411;-81
2022/01/17 04:30:50;;;;;;;12.10;7.35;;;3.70;92.30;;;;;;5027734;28;20032;-81
2022/01/17 04:33:16;;;;;;;13.10;7.57;;;3.70;92.30;;;;;;5022846;28;20030;-81
2022/01/17 04:35:42;;;;;;;12.20;7.93;;;3.70;92.30;;;;;;5075453;28;20431;-81
2022/01/17 04:38:13;;;;;;;11.48;7.05;;;3.70;92.30;;;;;;5020456;28;20028;-81
2022/01/17 04:40:39;;;;;;;15.00;7.93;;;3.70;92.30;;;;;;5024611;28;20025;-81
2022/01/17 04:45:44;;;;;;;15.82;7.45;;;3.70;92.30;;;;;;5042385;28;20040;-81
2022/01/17 04:48:10;;;;;;;12.00;7.35;;;3.70;92.30;;;;;;5036731;28;20021;-81
2022/01/17 04:50:36;;;;;;;13.13;7.13;;;3.70;92.30;;;;;;5022789;28;20040;-81
2022/01/17 04:53:02;;;;;;;11.98;7.00;;;3.70;92.30;;;;;;5022752;28;20028;-81
2022/01/17 04:55:28;;;;;;;14.07;7.10;;;3.70;92.30;;;;;;5010260;28;20025;-81
2022/01/17 04:57:56;;;;;;;14.73;7.80;;;3.80;92.30;;;;;;5036376;28;20044;-81
2022/01/17 05:00:22;;;;;;;12.05;7.22;;;3.80;92.30;;;;;;5019756;28;20028;-81
2022/01/17 05:02:48;;;;;;;10.95;6.80;;;3.80;92.30;;;;;;5015441;28;20037;-81
2022/01/17 05:05:13;;;;;;;12.05;7.13;;;3.80;92.30;;;;;;5040580;28;20044;-81
2022/01/17 05:07:39;;;;;;;12.38;7.13;;;3.80;92.30;;;;;;5023420;28;20096;-81
2022/01/17 05:10:08;;;;;;;13.65;7.18;;;3.80;92.30;;;;;;5008983;28;20040;-81
2022/01/17 05:12:33;;;;;;;11.10;6.63;;;3.80;92.30;;;;;;5007347;28;20068;-81
2022/01/17 05:14:59;;;;;;;98.95;34.30;;;3.80;92.30;;;;;;5021934;28;20040;-81
2022/01/17 05:19:58;;;;;;;29.52;14.45;;;3.80;92.30;;;;;;5004785;28;20782;-80
2022/01/17 05:22:32;;;;;;;10.07;6.70;;;3.80;92.30;;;;;;5049499;28;20048;-82
2022/01/17 05:25:01;;;;;;;18.27;11.27;;;3.80;92.30;;;;;;5035952;28;20518;-82
2022/01/17 05:27:26;;;;;;;11.55;6.95;;;3.80;92.30;;;;;;4999697;28;20040;-82
2022/01/17 05:29:52;;;;;;;11.48;6.60;;;3.80;92.30;;;;;;5055832;28;20037;-82
2022/01/17 05:32:17;;;;;;;11.15;6.40;;;3.80;92.30;;;;;;5021479;28;20029;-81
2022/01/17 05:34:43;;;;;;;9.68;6.45;;;3.80;92.70;;;;;;5013873;28;20110;-83
2022/01/17 05:37:09;;;;;;;11.50;6.70;;;3.80;92.30;;;;;;5022180;28;20131;-81
2022/01/17 05:39:35;;;;;;;11.32;6.03;;;3.90;92.30;;;;;;5029219;28;20618;-81
2022/01/17 05:42:01;;;;;;;11.48;6.85;;;3.90;92.40;;;;;;4993614;28;20046;-81
2022/01/17 05:44:26;;;;;;;9.20;6.03;;;3.80;92.30;;;;;;5034523;28;20048;-81
2022/01/17 05:46:52;;;;;;;12.65;7.15;;;3.80;92.30;;;;;;5015674;28;20048;-81
2022/01/17 05:49:18;;;;;;;10.40;6.18;;;3.90;92.30;;;;;;5004992;28;20037;-82
2022/01/17 05:51:43;;;;;;;11.88;6.20;;;3.90;92.30;;;;;;5039626;28;20037;-81
2022/01/17 05:54:09;;;;;;;12.98;5.93;;;3.90;92.30;;;;;;5054690;28;20051;-81
2022/01/17 05:56:34;;;;;;;10.60;6.15;;;3.90;92.30;;;;;;5006872;28;20052;-82
2022/01/17 05:59:00;;;;;;;12.98;6.50;;;3.90;92.30;;;;;;5014313;28;20044;-81
2022/01/17 06:01:25;;;;;;;13.15;6.55;;;3.90;92.30;;;;;;5018935;28;20037;-82
2022/01/17 06:03:51;;;;;;;11.50;6.78;;;3.90;92.30;;;;;;5041054;28;20032;-81
2022/01/17 06:06:16;;;;;;;11.00;6.18;;;3.90;92.30;;;;;;5028514;28;20044;-82
2022/01/17 06:08:42;;;;;;;9.15;5.93;;;3.90;92.30;;;;;;5032012;28;20025;-82
2022/01/17 06:11:08;;;;;;;9.73;5.95;;;3.90;92.30;;;;;;5059549;28;20031;-83
2022/01/17 06:13:33;;;;;;;10.20;5.90;;;3.90;92.30;;;;;;5030813;28;20088;-83
2022/01/17 06:15:59;;;;;;;10.48;5.53;;;3.90;92.30;;;;;;5005683;28;20061;-82
2022/01/17 06:18:24;;;;;;;11.38;5.70;;;3.90;92.30;;;;;;5028899;28;20025;-83
2022/01/17 06:20:50;;;;;;;11.60;7.60;;;3.90;92.30;;;;;;5039357;28;20033;-83
2022/01/17 06:23:15;;;;;;;8.13;5.63;;;3.90;92.30;;;;;;5007142;28;20120;-84
2022/01/17 06:25:41;;;;;;;8.18;5.57;;;3.90;92.30;;;;;;5027375;28;20059;-83
2022/01/17 06:28:07;;;;;;;11.48;6.40;;;3.90;92.30;;;;;;5022089;28;20053;-82
2022/01/17 06:30:32;;;;;;;12.27;6.90;;;3.90;92.30;;;;;;4984669;28;20515;-82
2022/01/17 06:32:58;;;;;;;8.55;5.43;;;3.90;92.30;;;;;;5023276;28;20039;-83
2022/01/17 06:35:24;;;;;;;12.02;6.38;;;3.90;92.30;;;;;;5013651;28;20059;-86
2022/01/17 06:37:51;;;;;;;11.55;6.22;;;3.90;92.30;;;;;;5017860;28;20033;-84
2022/01/17 06:40:17;;;;;;;13.00;6.35;;;3.90;92.20;;;;;;5045281;28;20073;-85
2022/01/17 06:42:42;;;;;;;10.93;6.55;;;3.90;92.20;;;;;;5009493;28;20040;-84
2022/01/17 06:45:08;;;;;;;13.02;5.80;;;4.00;92.30;;;;;;5038668;28;20041;-84
2022/01/17 06:47:35;;;;;;;12.82;6.85;;;4.00;92.20;;;;;;5019207;28;20044;-83
2022/01/17 06:50:01;;;;;;;12.00;6.45;;;4.00;92.20;;;;;;5003091;28;20061;-83
2022/01/17 06:52:26;;;;;;;9.38;6.32;;;4.00;92.30;;;;;;5042166;28;20581;-83
2022/01/17 06:54:55;;;;;;;12.68;7.13;;;4.00;92.30;;;;;;5019139;28;20084;-84
2022/01/17 06:57:20;;;;;;;10.43;6.65;;;4.00;92.30;;;;;;5017379;28;20044;-85
2022/01/17 06:59:46;;;;;;;11.02;6.60;;;4.00;92.30;;;;;;5021500;28;20086;-84
2022/01/17 07:02:11;;;;;;;11.02;6.55;;;4.00;92.30;;;;;;5052315;28;20037;-83
2022/01/17 07:04:37;;;;;;;13.80;6.82;;;4.00;92.30;;;;;;4991263;28;20034;-86
2022/01/17 07:07:03;;;;;;;12.60;6.25;;;4.00;92.30;;;;;;5031855;28;20519;-84
2022/01/17 07:09:29;;;;;;;10.30;5.85;;;4.00;92.20;;;;;;5041541;28;20041;-85
2022/01/17 07:11:58;;;;;;;12.43;6.32;;;4.00;92.30;;;;;;5012234;28;20539;-83
2022/01/17 07:14:25;;;;;;;9.35;6.18;;;4.00;92.30;;;;;;5013703;28;20100;-83
2022/01/17 07:16:50;;;;;;;10.77;6.10;;;4.00;92.30;;;;;;5038998;28;20033;-83
2022/01/17 07:19:16;;;;;;;13.90;6.68;;;4.00;92.30;;;;;;5005138;28;20033;-84
2022/01/17 07:21:41;;;;;;;10.35;5.70;;;4.00;92.30;;;;;;5055003;28;20034;-84
2022/01/17 07:24:07;;;;;;;9.00;5.53;;;4.00;92.30;;;;;;5044354;28;20052;-82
2022/01/17 07:26:33;;;;;;;10.70;6.20;;;4.00;92.30;;;;;;5009231;28;20056;-84
2022/01/17 07:28:58;;;;;;;10.63;6.57;;;4.00;92.30;;;;;;5038837;28;20028;-84
2022/01/17 07:31:24;;;;;;;10.20;5.88;;;4.00;92.30;;;;;;5027488;28;20581;-84
2022/01/17 07:33:49;;;;;;;9.80;6.43;;;4.00;92.30;;;;;;5034301;28;20044;-84
2022/01/17 07:36:19;;;;;;;11.10;6.70;;;4.00;92.30;;;;;;4986067;28;20040;-84
2022/01/17 07:38:45;;;;;;;11.60;6.18;;;4.10;92.30;;;;;;5042376;28;20024;-85
2022/01/17 07:41:11;;;;;;;9.88;5.28;;;4.10;92.30;;;;;;5017555;28;20407;-84
2022/01/17 07:43:37;;;;;;;9.93;6.22;;;4.10;92.30;;;;;;5013301;28;20056;-82
2022/01/17 07:46:06;;;;;;;8.52;5.78;;;4.10;92.30;;;;;;5009817;28;20025;-82
2022/01/17 07:51:16;;;;;;;10.13;6.22;;;4.10;92.30;;;;;;5024793;28;20106;-82
2022/01/17 07:53:42;;;;;;;11.00;5.55;;;4.10;92.20;;;;;;4997186;28;20499;-82
2022/01/17 07:56:07;;;;;;;10.27;5.55;;;4.10;92.20;;;;;;5039049;28;20093;-82
2022/01/17 07:58:33;;;;;;;8.95;5.63;;;4.10;92.30;;;;;;5014124;28;20075;-82
2022/01/17 08:00:58;;;;;;;12.48;6.63;;;4.10;92.20;;;;;;5031079;28;20041;-82
2022/01/17 08:03:24;;;;;;;8.98;5.57;;;4.20;92.30;;;;;;5031768;28;20028;-82
2022/01/17 08:05:49;;;;;;;9.38;5.32;;;4.20;92.20;;;;;;5037347;28;20036;-82
2022/01/17 08:08:15;;;;;;;8.70;5.05;;;4.20;92.20;;;;;;5063442;28;20044;-82
2022/01/17 08:10:40;;;;;;;10.15;5.43;;;4.20;92.20;;;;;;5025905;28;20052;-82
2022/01/17 08:13:06;;;;;;;8.65;5.28;;;4.20;92.20;;;;;;5018753;28;20037;-82
2022/01/17 08:15:32;;;;;;;6.90;4.57;;;4.20;92.20;;;;;;5019730;28;20128;-80
2022/01/17 08:17:57;;;;;;;8.93;5.60;;;4.30;92.20;;;;;;5019519;28;20521;-81
2022/01/17 08:20:23;;;;;;;8.88;5.18;;;4.30;92.20;;;;;;5014024;28;20053;-80
2022/01/17 08:22:49;;;;;;;8.38;5.05;;;4.30;92.20;;;;;;5016306;28;20410;-82
2022/01/17 08:25:15;;;;;;;10.90;6.13;;;4.30;92.20;;;;;;5030626;28;20108;-82
2022/01/17 08:27:40;;;;;;;9.05;5.20;;;4.30;92.20;;;;;;5006686;28;20106;-81
2022/01/17 08:30:07;;;;;;;9.88;5.72;;;4.30;92.20;;;;;;5020007;28;20025;-81
2022/01/17 08:32:32;;;;;;;9.52;4.65;;;4.30;92.20;;;;;;5042630;28;20051;-82
2022/01/17 08:34:58;;;;;;;7.85;4.82;;;4.40;92.20;;;;;;4998798;28;20181;-81
2022/01/17 08:37:25;;;;;;;7.13;4.30;;;4.40;92.20;;;;;;5035767;28;20570;-81
2022/01/17 08:39:50;;;;;;;9.77;4.72;;;4.30;92.10;;;;;;5038810;28;21518;-82
2022/01/17 08:42:16;;;;;;;7.80;4.53;;;4.30;92.10;;;;;;5002005;28;20053;-81
2022/01/17 08:44:48;;;;;;;7.13;4.70;;;4.40;92.10;;;;;;5009959;28;20593;-81
2022/01/17 08:47:14;;;;;;;11.75;5.60;;;4.40;92.10;;;;;;5039459;28;20040;-82
2022/01/17 08:49:40;;;;;;;7.30;5.05;;;4.40;92.10;;;;;;5014443;28;20037;-82
2022/01/17 08:52:05;;;;;;;9.25;5.30;;;4.40;92.10;;;;;;5013599;28;20037;-82
2022/01/17 08:54:31;;;;;;;8.82;5.25;;;4.40;92.10;;;;;;5052898;28;20032;-81
2022/01/17 08:56:57;;;;;;;9.45;4.03;;;4.40;92.10;;;;;;5015542;28;20390;-81
2022/01/17 08:59:22;;;;;;;8.93;5.55;;;4.40;92.10;;;;;;5018333;28;20467;-82
2022/01/17 09:01:48;;;;;;;9.18;4.47;;;4.40;92.10;;;;;;5033751;28;20040;-82
2022/01/17 09:04:13;;;;;;;11.32;5.60;;;4.50;92.10;;;;;;5018940;28;20037;-82
2022/01/17 09:06:39;;;;;;;9.13;4.97;;;4.50;92.00;;;;;;5023396;28;20041;-81
2022/01/17 09:09:04;;;;;;;9.30;4.68;;;4.50;92.00;;;;;;5025725;28;20511;-82
2022/01/17 09:11:30;;;;;;;7.95;5.15;;;4.50;92.00;;;;;;5011581;28;20566;-81
2022/01/17 09:13:55;;;;;;;6.07;4.15;;;4.50;92.00;;;;;;5027386;28;20033;-81
2022/01/17 09:16:21;;;;;;;6.38;3.85;;;4.50;91.90;;;;;;5040839;28;20013;-83
2022/01/17 09:18:46;;;;;;;8.73;4.35;;;4.50;91.90;;;;;;5032638;28;20089;-81
2022/01/17 09:21:12;;;;;;;10.20;5.47;;;4.60;91.90;;;;;;5009750;28;20042;-81
2022/01/17 09:23:38;;;;;;;5.82;3.80;;;4.60;91.90;;;;;;5032910;28;20114;-82
2022/01/17 09:26:04;;;;;;;5.57;3.78;;;4.60;91.80;;;;;;5018576;28;20037;-81
2022/01/17 09:28:30;;;;;;;6.82;4.18;;;4.60;91.80;;;;;;4986770;28;20058;-82
2022/01/17 09:30:55;;;;;;;8.50;4.20;;;4.60;91.80;;;;;;5010949;28;20121;-81
2022/01/17 09:33:21;;;;;;;8.35;4.28;;;4.70;91.80;;;;;;5023823;28;20028;-82
2022/01/17 09:35:46;;;;;;;6.32;4.10;;;4.70;91.70;;;;;;5014408;28;20033;-81
2022/01/17 09:38:12;;;;;;;6.78;4.40;;;4.70;91.70;;;;;;5007971;28;20061;-82
2022/01/17 09:40:40;;;;;;;8.30;4.70;;;4.70;91.70;;;;;;5002539;28;20369;-82
2022/01/17 09:43:06;;;;;;;6.10;3.80;;;4.70;91.60;;;;;;5021390;28;20048;-82
2022/01/17 09:45:31;;;;;;;9.60;4.85;;;4.80;91.70;;;;;;5026287;28;20047;-81
2022/01/17 09:47:58;;;;;;;19.25;9.23;;;4.80;92.00;;;;;;5004963;28;20133;-81
2022/01/17 09:50:32;;;;;;;13.55;6.68;;;4.80;91.60;;;;;;5021194;28;20497;-82
2022/01/17 09:52:58;;;;;;;12.90;6.28;;;4.80;91.60;;;;;;4990779;28;20119;-82
2022/01/17 09:55:26;;;;;;;23.75;11.07;;;4.80;91.60;;;;;;5011352;28;20092;-83
2022/01/17 09:58:05;;;;;;;28.45;13.07;;;4.80;91.50;;;;;;5003949;28;20051;-82
2022/01/17 10:00:34;;;;;;;13.75;6.65;;;4.80;91.40;;;;;;5016467;28;20037;-81
2022/01/17 10:03:02;;;;;;;15.10;6.82;;;4.80;91.40;;;;;;5003471;28;20202;-82
2022/01/17 10:05:28;;;;;;;9.98;5.43;;;4.90;91.40;;;;;;5017095;28;20029;-82
2022/01/17 10:08:20;;;;;;;11.40;6.30;;;4.90;91.40;;;;;;4980926;28;20184;-82
2022/01/17 10:11:01;;;;;;;16.30;7.07;;;4.90;91.40;;;;;;5033494;28;20115;-82
2022/01/17 10:13:37;;;;;;;16.23;6.67;;;4.90;91.40;;;;;;5006011;28;20033;-82
2022/01/17 10:16:04;;;;;;;8.30;5.20;;;4.90;91.30;;;;;;5018996;28;20500;-82
2022/01/17 10:18:46;;;;;;;15.23;7.03;;;4.90;91.30;;;;;;5027101;28;20043;-82
2022/01/17 10:21:19;;;;;;;20.70;7.38;;;4.90;91.30;;;;;;5050373;28;20064;-81
2022/01/17 10:29:32;;;;;;;9.70;5.40;;;4.90;91.30;;;;;;5004607;28;20029;-81
2022/01/17 10:37:14;;;;;;;9.23;4.05;;;5.00;91.20;;;;;;5022468;28;20079;-81
2022/01/17 10:40:05;;;;;;;8.13;4.57;;;5.00;91.20;;;;;;5017338;28;20149;-82
2022/01/17 10:42:42;;;;;;;8.18;4.30;;;5.00;91.20;;;;;;5008574;28;20575;-82
2022/01/17 10:45:13;;;;;;;7.22;3.88;;;5.00;91.20;;;;;;4989868;28;20041;-81
2022/01/17 10:47:43;;;;;;;9.95;4.25;;;5.00;91.50;;;;;;5003068;28;20118;-82
2022/01/17 10:50:13;;;;;;;9.73;4.65;;;5.00;91.10;;;;;;5011015;28;20032;-81
2022/01/17 10:52:42;;;;;;;8.57;4.82;;;5.00;91.10;;;;;;4992483;28;20029;-82
2022/01/17 10:55:45;;;;;;;6.50;3.47;;;5.00;91.10;;;;;;5030427;28;20048;-82
2022/01/17 10:58:17;;;;;;;7.13;4.72;;;5.10;91.10;;;;;;4989510;28;20531;-82
2022/01/17 11:00:48;;;;;;;7.10;4.05;;;5.10;91.10;;;;;;5014928;28;20028;-82
2022/01/17 11:03:15;;;;;;;7.53;4.07;;;5.10;91.10;;;;;;4996415;28;20041;-82
2022/01/17 11:05:43;;;;;;;10.35;4.10;;;5.10;91.10;;;;;;5018539;28;20079;-81
2022/01/17 11:08:09;;;;;;;6.70;3.83;;;5.10;91.10;;;;;;5028392;28;20044;-82
2022/01/17 11:10:37;;;;;;;5.63;3.05;;;5.10;91.10;;;;;;5000582;28;20447;-82
2022/01/17 11:13:03;;;;;;;8.98;3.90;;;5.10;91.00;;;;;;5006065;28;20106;-82
2022/01/17 11:15:32;;;;;;;6.88;3.63;;;5.20;91.00;;;;;;5013429;28;20087;-81
2022/01/17 11:18:08;;;;;;;11.23;4.30;;;5.10;91.00;;;;;;5009894;28;20041;-81
2022/01/17 11:20:34;;;;;;;8.80;4.25;;;5.10;91.00;;;;;;5012285;28;20457;-82
2022/01/17 11:23:00;;;;;;;6.25;3.97;;;5.20;91.00;;;;;;4978744;28;20029;-81
2022/01/17 11:25:28;;;;;;;6.43;3.75;;;5.20;91.00;;;;;;5020008;28;20047;-82
2022/01/17 11:27:54;;;;;;;8.93;4.07;;;5.20;90.90;;;;;;4987764;28;20041;-81
2022/01/17 11:30:19;;;;;;;10.90;4.72;;;5.20;90.90;;;;;;4986430;28;20033;-81
2022/01/17 11:32:46;;;;;;;7.38;4.07;;;5.20;90.90;;;;;;5003510;28;20043;-82
2022/01/17 11:35:13;;;;;;;5.07;3.72;;;5.20;90.90;;;;;;5010558;28;20084;-82
2022/01/17 11:37:41;;;;;;;7.40;4.30;;;5.20;90.90;;;;;;5013249;28;20204;-82
2022/01/17 11:40:08;;;;;;;9.25;4.82;;;5.20;90.90;;;;;;5015334;28;20037;-82
2022/01/17 11:42:34;;;;;;;9.43;4.38;;;5.20;90.80;;;;;;5025017;28;20045;-82
2022/01/17 11:45:00;;;;;;;6.22;3.60;;;5.20;90.90;;;;;;5035501;28;20048;-83
2022/01/17 11:47:46;;;;;;;6.95;4.55;;;5.20;90.80;;;;;;5027406;28;20033;-82
2022/01/17 11:50:36;;;;;;;7.80;3.50;;;5.30;90.80;;;;;;5021961;28;20033;-82
2022/01/17 11:53:11;;;;;;;5.30;3.45;;;5.30;90.80;;;;;;5016551;28;20142;-81
2022/01/17 11:55:41;;;;;;;6.85;4.15;;;5.30;90.80;;;;;;5050688;28;20086;-81
2022/01/17 11:58:27;;;;;;;4.90;3.28;;;5.30;90.80;;;;;;5018786;28;20041;-82
2022/01/17 12:01:01;;;;;;;7.45;3.58;;;5.30;90.70;;;;;;5037393;28;20036;-82
2022/01/17 12:03:31;;;;;;;10.48;4.75;;;5.30;90.80;;;;;;5043705;28;20040;-81
2022/01/17 12:06:01;;;;;;;9.20;3.90;;;5.40;90.80;;;;;;5016662;28;20719;-81
2022/01/17 12:08:26;;;;;;;5.80;3.13;;;5.40;90.70;;;;;;5024956;28;20030;-82
2022/01/17 12:11:03;;;;;;;6.75;3.90;;;5.40;90.70;;;;;;5013147;28;20025;-82
2022/01/17 12:13:38;;;;;;;4.97;3.05;;;5.40;90.70;;;;;;5014584;28;20821;-81
2022/01/17 12:16:11;;;;;;;6.03;3.40;;;5.40;90.70;;;;;;5020139;28;20025;-81
2022/01/17 12:18:48;;;;;;;7.40;3.20;;;5.40;90.60;;;;;;5034579;28;20491;-82
2022/01/17 12:21:24;;;;;;;5.55;3.55;;;5.40;90.60;;;;;;5018248;28;20021;-82
2022/01/17 12:23:51;;;;;;;6.50;3.38;;;5.50;90.70;;;;;;5024417;28;20025;-82
2022/01/17 12:26:30;;;;;;;5.65;3.17;;;5.50;90.60;;;;;;5028034;28;20629;-82
2022/01/17 12:28:57;;;;;;;9.57;5.53;;;5.50;90.60;;;;;;4991811;28;20066;-81
2022/01/17 12:31:44;;;;;;;6.22;3.25;;;5.50;90.60;;;;;;5033505;28;20060;-82
2022/01/17 12:34:20;;;;;;;6.95;3.17;;;5.50;90.50;;;;;;5013433;28;20596;-81
2022/01/17 12:36:48;;;;;;;8.13;3.20;;;5.50;90.50;;;;;;5008819;28;20041;-81
2022/01/17 12:39:18;;;;;;;5.50;3.42;;;5.50;90.50;;;;;;5028333;28;20029;-82
2022/01/17 12:41:45;;;;;;;7.00;3.58;;;5.50;90.50;;;;;;5015820;28;20048;-82
2022/01/17 12:44:27;;;;;;;6.82;3.50;;;5.50;90.50;;;;;;4999609;28;20033;-81
2022/01/17 12:46:59;;;;;;;6.88;3.90;;;5.60;90.40;;;;;;4990351;28;20148;-82
2022/01/17 12:49:24;;;;;;;5.50;3.20;;;5.60;90.50;;;;;;4995793;28;20051;-81
2022/01/17 12:51:51;;;;;;;5.63;3.65;;;5.50;90.50;;;;;;4992403;28;20029;-82
2022/01/17 12:54:21;;;;;;;6.40;3.72;;;5.60;90.50;;;;;;5036441;28;20033;-82
2022/01/17 12:56:51;;;;;;;6.30;3.33;;;5.60;90.40;;;;;;5011051;28;20032;-81
2022/01/17 12:59:18;;;;;;;8.52;4.20;;;5.60;90.40;;;;;;5033110;28;20021;-81
2022/01/17 13:01:50;;;;;;;8.10;3.67;;;5.60;90.40;;;;;;4990679;28;20059;-81
2022/01/17 13:04:17;;;;;;;5.95;3.97;;;5.60;90.40;;;;;;5007001;28;20033;-81
2022/01/17 13:06:45;;;;;;;7.00;3.88;;;5.60;90.40;;;;;;5026312;28;20040;-83
2022/01/17 13:09:12;;;;;;;8.07;4.10;;;5.60;90.40;;;;;;5014939;28;20033;-82
2022/01/17 13:11:42;;;;;;;7.72;3.63;;;5.60;90.40;;;;;;4988779;28;20037;-82
2022/01/17 13:14:08;;;;;;;8.27;3.92;;;5.60;90.40;;;;;;5025563;28;20043;-82
2022/01/17 13:16:38;;;;;;;9.52;4.65;;;5.60;90.40;;;;;;5017538;28;20020;-82
2022/01/17 13:19:05;;;;;;;7.00;4.57;;;5.60;90.30;;;;;;5031996;28;20032;-82
2022/01/17 13:21:31;;;;;;;7.22;4.25;;;5.60;90.30;;;;;;5000710;28;20064;-83
2022/01/17 13:24:01;;;;;;;7.03;4.35;;;5.60;90.30;;;;;;5046691;28;20539;-82
2022/01/17 13:26:33;;;;;;;7.63;4.50;;;5.60;90.30;;;;;;5036001;28;20037;-81
2022/01/17 13:28:59;;;;;;;6.90;3.90;;;5.70;90.30;;;;;;5020596;28;20112;-81
2022/01/17 13:31:29;;;;;;;7.25;4.00;;;5.60;90.30;;;;;;5020302;28;20032;-82
2022/01/17 13:34:09;;;;;;;7.40;4.35;;;5.70;90.40;;;;;;5037873;28;20399;-82